createdAt,value
2022-08-17T00:00:10.992Z,99.72
2022-08-17T00:02:56.291Z,100.00
2022-08-17T00:05:22.552Z,100.00
2022-08-17T00:07:48.882Z,100.00
2022-08-17T00:10:15.120Z,100.00
2022-08-17T00:12:44.538Z,100.00
2022-08-17T00:15:10.897Z,100.00
2022-08-17T00:17:37.073Z,100.00
2022-08-17T00:20:03.292Z,100.00
2022-08-17T00:22:34.759Z,100.00
2022-08-17T00:25:02.185Z,100.00
2022-08-17T00:27:28.397Z,100.00
2022-08-17T00:29:54.629Z,100.00
2022-08-17T00:33:14.004Z,100.00
2022-08-17T00:35:07.027Z,100.00
2022-08-17T00:37:33.190Z,100.00
2022-08-17T00:39:59.510Z,100.00
2022-08-17T00:42:30.784Z,100.00
2022-08-17T00:44:57.363Z,100.00
2022-08-17T00:47:23.609Z,100.00
2022-08-17T00:49:49.772Z,100.00
2022-08-17T00:52:15.997Z,100.00
2022-08-17T00:54:42.533Z,100.00
2022-08-17T00:57:08.850Z,100.00
2022-08-17T00:59:35.040Z,100.00
2022-08-17T01:02:01.232Z,100.00
2022-08-17T01:04:27.431Z,100.00
2022-08-17T01:06:53.629Z,100.00
2022-08-17T01:09:19.834Z,100.00
2022-08-17T01:11:46.016Z,100.00
2022-08-17T01:14:12.184Z,100.00
2022-08-17T01:16:38.367Z,100.00
2022-08-17T01:19:04.537Z,100.00
2022-08-17T01:21:30.896Z,100.00
2022-08-17T01:23:57.095Z,100.00
2022-08-17T01:26:23.301Z,100.00
2022-08-17T01:28:53.876Z,100.00
2022-08-17T01:31:21.383Z,100.00
2022-08-17T01:33:47.572Z,100.00
2022-08-17T01:36:13.777Z,100.00
2022-08-17T01:38:39.965Z,100.00
2022-08-17T01:41:06.167Z,100.00
2022-08-17T01:43:32.348Z,100.00
2022-08-17T01:46:03.738Z,100.00
2022-08-17T01:48:30.284Z,100.00
2022-08-17T01:50:58.766Z,100.00
2022-08-17T01:53:24.952Z,100.00
2022-08-17T01:55:51.131Z,100.00
2022-08-17T01:58:20.231Z,100.00
2022-08-17T02:01:00.762Z,100.00
2022-08-17T02:03:36.644Z,100.00
2022-08-17T02:06:02.825Z,100.00
2022-08-17T02:08:37.257Z,100.00
2022-08-17T02:11:05.570Z,100.00
2022-08-17T02:13:37.617Z,100.00
2022-08-17T02:16:03.792Z,100.00
2022-08-17T02:18:40.339Z,100.00
2022-08-17T02:21:06.515Z,100.00
2022-08-17T02:23:32.697Z,100.00
2022-08-17T02:25:58.871Z,100.00
2022-08-17T02:28:25.050Z,100.00
2022-08-17T02:31:01.383Z,100.00
2022-08-17T02:33:43.089Z,100.00
2022-08-17T02:36:09.897Z,100.00
2022-08-17T02:38:36.091Z,100.00
2022-08-17T02:41:02.278Z,100.00
2022-08-17T02:43:28.444Z,100.00
2022-08-17T02:45:54.624Z,100.00
2022-08-17T02:48:30.773Z,100.00
2022-08-17T02:50:58.080Z,100.00
2022-08-17T02:53:24.259Z,100.00
2022-08-17T02:55:51.990Z,100.00
2022-08-17T02:58:18.873Z,100.00
2022-08-17T03:01:01.080Z,100.00
2022-08-17T03:03:27.243Z,100.00
2022-08-17T03:05:53.634Z,100.00
2022-08-17T03:08:19.838Z,100.00
2022-08-17T03:10:46.072Z,100.00
2022-08-17T03:13:12.288Z,100.00
2022-08-17T03:15:38.590Z,100.00
2022-08-17T03:18:14.375Z,100.00
2022-08-17T03:20:45.587Z,100.00
2022-08-17T03:23:11.779Z,100.00
2022-08-17T03:25:37.947Z,100.00
2022-08-17T03:28:04.865Z,100.00
2022-08-17T03:30:31.091Z,100.00
2022-08-17T03:32:57.301Z,100.00
2022-08-17T03:35:23.548Z,100.00
2022-08-17T03:38:00.890Z,100.00
2022-08-17T03:40:55.305Z,100.00
2022-08-17T03:43:13.582Z,100.00
2022-08-17T03:45:39.809Z,100.00
2022-08-17T03:48:06.019Z,100.00
2022-08-17T03:50:32.208Z,100.00
2022-08-17T03:52:58.489Z,100.00
2022-08-17T03:55:24.780Z,100.00
2022-08-17T03:58:02.615Z,100.00
2022-08-17T04:00:28.819Z,100.00
2022-08-17T04:02:54.969Z,100.00
2022-08-17T04:05:21.146Z,100.00
2022-08-17T04:07:47.335Z,100.00
2022-08-17T04:10:13.505Z,100.00
2022-08-17T04:12:39.700Z,100.00
2022-08-17T04:15:05.872Z,100.00
2022-08-17T04:17:32.069Z,100.00
2022-08-17T04:19:58.431Z,100.00
2022-08-17T04:22:32.945Z,100.00
2022-08-17T04:25:00.331Z,100.00
2022-08-17T04:27:26.541Z,100.00
2022-08-17T04:29:55.301Z,100.00
2022-08-17T04:32:59.183Z,100.00
2022-08-17T04:35:08.098Z,100.00
2022-08-17T04:37:34.280Z,100.00
2022-08-17T04:40:03.971Z,100.00
2022-08-17T04:42:30.580Z,100.00
2022-08-17T04:44:56.787Z,100.00
2022-08-17T04:47:22.984Z,100.00
2022-08-17T04:49:49.158Z,100.00
2022-08-17T04:52:32.338Z,100.00
2022-08-17T04:55:01.843Z,100.00
2022-08-17T04:57:28.084Z,100.00
2022-08-17T04:59:54.243Z,100.00
2022-08-17T05:02:20.478Z,100.00
2022-08-17T05:04:46.661Z,100.00
2022-08-17T05:07:12.869Z,100.00
2022-08-17T05:09:39.114Z,100.00
2022-08-17T05:12:05.271Z,100.00
2022-08-17T05:14:37.725Z,100.00
2022-08-17T05:17:07.227Z,99.76
2022-08-17T05:19:37.424Z,99.77
2022-08-17T05:24:53.636Z,100.00
2022-08-17T05:27:21.723Z,100.00
2022-08-17T05:29:49.714Z,97.27
2022-08-17T05:32:39.084Z,98.94
2022-08-17T05:35:02.098Z,100.00
2022-08-17T05:40:19.018Z,93.42
2022-08-17T05:42:45.192Z,93.40
2022-08-17T05:45:11.382Z,91.53
2022-08-17T05:47:38.666Z,89.77
2022-08-17T05:50:09.841Z,88.10
2022-08-17T05:52:36.228Z,88.68
2022-08-17T05:55:02.625Z,87.38
2022-08-17T05:57:28.856Z,85.84
2022-08-17T05:59:55.580Z,83.91
2022-08-17T06:02:21.945Z,84.26
2022-08-17T06:04:48.233Z,83.96
2022-08-17T06:07:14.533Z,81.98
2022-08-17T06:09:40.747Z,84.40
2022-08-17T06:12:06.989Z,84.50
2022-08-17T06:14:40.637Z,84.27
2022-08-17T06:17:06.882Z,85.66
2022-08-17T06:19:33.090Z,87.10
2022-08-17T06:21:59.321Z,86.58
2022-08-17T06:24:26.345Z,86.58
2022-08-17T06:26:52.568Z,87.40
2022-08-17T06:29:19.097Z,87.61
2022-08-17T06:31:45.398Z,87.76
2022-08-17T06:34:11.744Z,86.13
2022-08-17T06:36:37.980Z,86.75
2022-08-17T06:39:04.165Z,86.80
2022-08-17T06:41:30.480Z,86.98
2022-08-17T06:43:56.731Z,88.82
2022-08-17T06:46:22.925Z,87.25
2022-08-17T06:48:49.181Z,88.44
2022-08-17T06:51:15.416Z,87.94
2022-08-17T06:53:41.635Z,88.00
2022-08-17T06:56:07.860Z,87.13
2022-08-17T06:58:34.141Z,89.56
2022-08-17T07:01:00.342Z,86.50
2022-08-17T07:03:26.563Z,87.63
2022-08-17T07:05:52.729Z,87.85
2022-08-17T07:08:18.925Z,89.30
2022-08-17T07:10:45.126Z,89.55
2022-08-17T07:13:11.308Z,89.37
2022-08-17T07:15:37.521Z,91.25
2022-08-17T07:18:03.829Z,91.03
2022-08-17T07:20:30.065Z,89.47
2022-08-17T07:23:00.007Z,90.90
2022-08-17T07:25:26.817Z,92.19
2022-08-17T07:27:53.068Z,89.18
2022-08-17T07:30:19.242Z,89.10
2022-08-17T07:32:45.457Z,93.67
2022-08-17T07:35:11.777Z,90.30
2022-08-17T07:37:38.017Z,91.03
2022-08-17T07:40:16.309Z,95.34
2022-08-17T07:42:46.681Z,91.73
2022-08-17T07:45:12.992Z,88.94
2022-08-17T07:47:39.198Z,89.95
2022-08-17T07:50:05.425Z,89.35
2022-08-17T07:52:50.843Z,90.25
2022-08-17T07:55:17.787Z,88.48
2022-08-17T07:57:44.068Z,88.91
2022-08-17T08:00:13.485Z,88.00
2022-08-17T08:02:42.668Z,89.47
2022-08-17T08:05:09.030Z,87.39
2022-08-17T08:07:36.353Z,87.63
2022-08-17T08:10:02.534Z,86.98
2022-08-17T08:12:33.703Z,86.89
2022-08-17T08:15:00.155Z,88.51
2022-08-17T08:17:26.367Z,90.43
2022-08-17T08:19:52.837Z,90.07
2022-08-17T08:22:19.025Z,90.74
2022-08-17T08:24:45.274Z,90.48
2022-08-17T08:27:11.549Z,88.61
2022-08-17T08:29:37.724Z,87.32
2022-08-17T08:32:03.919Z,90.43
2022-08-17T08:35:00.735Z,91.27
2022-08-17T08:37:22.640Z,90.30
2022-08-17T08:39:51.346Z,93.88
2022-08-17T08:42:17.592Z,99.22
2022-08-17T08:45:00.064Z,100.00
2022-08-17T08:47:29.955Z,100.00
2022-08-17T08:50:04.839Z,100.00
2022-08-17T08:52:31.702Z,100.00
2022-08-17T08:54:57.907Z,100.00
2022-08-17T08:57:28.033Z,100.00
2022-08-17T08:59:59.190Z,100.00
2022-08-17T09:02:25.372Z,100.00
2022-08-17T09:05:13.318Z,100.00
2022-08-17T09:07:37.773Z,100.00
2022-08-17T09:10:03.984Z,100.00
2022-08-17T09:12:30.204Z,100.00
2022-08-17T09:14:56.386Z,100.00
2022-08-17T09:17:22.597Z,100.00
2022-08-17T09:19:48.833Z,100.00
2022-08-17T09:22:15.014Z,100.00
2022-08-17T09:24:41.208Z,100.00
2022-08-17T09:27:07.438Z,96.52
2022-08-17T09:29:33.707Z,98.11
2022-08-17T09:31:59.911Z,97.75
2022-08-17T09:34:31.979Z,96.77
2022-08-17T09:36:59.513Z,97.39
2022-08-17T09:39:25.746Z,96.04
2022-08-17T09:41:51.936Z,96.50
2022-08-17T09:44:23.103Z,96.84
2022-08-17T09:46:50.029Z,97.93
2022-08-17T09:49:16.231Z,98.36
2022-08-17T09:51:42.426Z,98.03
2022-08-17T09:54:37.083Z,94.43
2022-08-17T09:57:18.141Z,90.35
2022-08-17T09:59:40.937Z,92.77
2022-08-17T10:02:08.087Z,91.91
2022-08-17T10:04:39.514Z,94.64
2022-08-17T10:07:05.694Z,96.80
2022-08-17T10:09:31.874Z,91.36
2022-08-17T10:11:58.761Z,96.62
2022-08-17T10:14:36.394Z,95.05
2022-08-17T10:17:04.356Z,96.22
2022-08-17T10:19:30.569Z,96.46
2022-08-17T10:22:00.958Z,98.48
2022-08-17T10:24:27.793Z,96.58
2022-08-17T10:26:56.801Z,95.53
2022-08-17T10:29:23.644Z,96.14
2022-08-17T10:31:53.078Z,97.21
2022-08-17T10:34:19.311Z,98.91
2022-08-17T10:36:45.513Z,97.81
2022-08-17T10:39:11.685Z,97.71
2022-08-17T10:41:40.307Z,96.95
2022-08-17T10:44:39.095Z,97.81
2022-08-17T10:46:52.962Z,95.15
2022-08-17T10:49:19.148Z,96.80
2022-08-17T10:51:45.335Z,96.74
2022-08-17T10:54:12.784Z,96.22
2022-08-17T10:56:38.975Z,97.16
2022-08-17T10:59:05.179Z,98.56
2022-08-17T11:01:31.370Z,100.00
2022-08-17T11:03:57.546Z,94.82
2022-08-17T11:06:23.764Z,94.07
2022-08-17T11:08:49.988Z,93.71
2022-08-17T11:11:16.333Z,94.94
2022-08-17T11:13:42.611Z,90.06
2022-08-17T11:16:08.817Z,92.63
2022-08-17T11:18:34.982Z,88.91
2022-08-17T11:21:01.144Z,85.50
2022-08-17T11:23:27.370Z,77.35
2022-08-17T11:25:53.621Z,74.51
2022-08-17T11:28:19.826Z,73.03
2022-08-17T11:30:46.042Z,68.95
2022-08-17T11:33:12.314Z,68.63
2022-08-17T11:35:38.503Z,68.58
2022-08-17T11:38:04.739Z,68.92
2022-08-17T11:40:31.439Z,71.55
2022-08-17T11:42:57.615Z,70.21
2022-08-17T11:45:32.566Z,71.46
2022-08-17T11:48:26.080Z,72.32
2022-08-17T11:50:45.303Z,74.09
2022-08-17T11:53:11.530Z,73.00
2022-08-17T11:55:42.998Z,73.57
2022-08-17T11:58:11.186Z,73.50
2022-08-17T12:00:37.419Z,74.64
2022-08-17T12:03:03.772Z,73.54
2022-08-17T12:05:30.095Z,74.26
2022-08-17T12:07:56.285Z,74.77
2022-08-17T12:10:22.452Z,73.09
2022-08-17T12:12:48.673Z,71.80
2022-08-17T12:17:59.047Z,72.48
2022-08-17T12:20:25.437Z,72.36
2022-08-17T12:22:51.640Z,71.86
2022-08-17T12:25:17.832Z,70.02
2022-08-17T12:28:04.910Z,73.04
2022-08-17T12:30:30.282Z,73.33
2022-08-17T12:32:56.459Z,73.27
2022-08-17T12:35:22.714Z,71.90
2022-08-17T12:37:49.173Z,71.77
2022-08-17T12:40:15.593Z,74.21
2022-08-17T12:42:42.152Z,70.32
2022-08-17T12:45:08.397Z,68.28
2022-08-17T12:47:34.666Z,71.31
2022-08-17T12:50:00.980Z,75.35
2022-08-17T12:52:27.283Z,79.40
2022-08-17T12:54:53.559Z,74.82
2022-08-17T12:57:19.750Z,73.49
2022-08-17T12:59:46.028Z,75.79
2022-08-17T13:02:12.391Z,68.58
2022-08-17T13:04:38.626Z,73.03
2022-08-17T13:07:04.834Z,66.38
2022-08-17T13:09:40.069Z,67.79
2022-08-17T13:12:07.772Z,69.35
2022-08-17T13:14:34.269Z,65.49
2022-08-17T13:17:00.557Z,65.56
2022-08-17T13:19:39.811Z,60.51
2022-08-17T13:22:08.559Z,63.46
2022-08-17T13:24:38.167Z,61.79
2022-08-17T13:27:07.806Z,63.03
2022-08-17T13:29:34.624Z,65.88
2022-08-17T13:32:04.965Z,63.28
2022-08-17T13:34:34.154Z,63.88
2022-08-17T13:37:04.966Z,59.61
2022-08-17T13:39:34.405Z,58.92
2022-08-17T13:42:00.584Z,55.63
2022-08-17T13:44:26.821Z,54.28
2022-08-17T13:46:56.976Z,56.34
2022-08-17T13:49:23.650Z,53.43
2022-08-17T13:51:49.915Z,52.27
2022-08-17T13:54:16.185Z,51.97
2022-08-17T13:56:42.455Z,52.68
2022-08-17T13:59:08.721Z,52.23
2022-08-17T14:01:34.969Z,53.11
2022-08-17T14:04:01.218Z,50.25
2022-08-17T14:06:51.765Z,53.55
2022-08-17T14:09:13.752Z,48.83
2022-08-17T14:11:40.233Z,47.66
2022-08-17T14:14:06.777Z,47.23
2022-08-17T14:16:33.001Z,53.73
2022-08-17T14:18:59.232Z,51.52
2022-08-17T14:21:25.440Z,49.85
2022-08-17T14:23:54.771Z,46.95
2022-08-17T14:26:21.270Z,47.36
2022-08-17T14:28:56.317Z,45.25
2022-08-17T14:31:22.990Z,44.66
2022-08-17T14:33:49.201Z,46.56
2022-08-17T14:36:15.422Z,46.51
2022-08-17T14:38:41.622Z,44.75
2022-08-17T14:41:07.903Z,44.68
2022-08-17T14:43:34.441Z,45.01
2022-08-17T14:46:00.645Z,45.76
2022-08-17T14:48:28.238Z,44.19
2022-08-17T14:50:54.890Z,44.91
2022-08-17T14:53:21.181Z,44.55
2022-08-17T14:55:49.710Z,45.68
2022-08-17T14:58:15.991Z,44.67
2022-08-17T15:00:42.208Z,42.12
2022-08-17T15:03:08.506Z,43.57
2022-08-17T15:05:34.721Z,41.93
2022-08-17T15:08:00.968Z,42.85
2022-08-17T15:10:27.231Z,43.42
2022-08-17T15:12:53.569Z,41.28
2022-08-17T15:15:19.783Z,43.91
2022-08-17T15:17:46.259Z,42.75
2022-08-17T15:20:14.825Z,41.03
2022-08-17T15:22:41.496Z,40.63
2022-08-17T15:25:07.729Z,41.34
2022-08-17T15:27:33.984Z,40.75
2022-08-17T15:30:00.221Z,41.75
2022-08-17T15:32:26.470Z,41.53
2022-08-17T15:34:52.765Z,40.39
2022-08-17T15:37:19.077Z,39.78
2022-08-17T15:39:46.571Z,44.66
2022-08-17T15:42:12.923Z,44.54
2022-08-17T15:44:40.238Z,41.71
2022-08-17T15:47:06.524Z,44.63
2022-08-17T15:49:34.747Z,47.32
2022-08-17T15:52:01.045Z,46.43
2022-08-17T15:54:33.522Z,50.78
2022-08-17T15:57:00.996Z,50.37
2022-08-17T15:59:27.341Z,44.72
2022-08-17T16:03:15.378Z,47.14
2022-08-17T16:04:40.419Z,46.85
2022-08-17T16:07:10.298Z,47.21
2022-08-17T16:09:36.717Z,51.87
2022-08-17T16:12:02.971Z,49.75
2022-08-17T16:14:33.638Z,48.41
2022-08-17T16:17:01.518Z,53.77
2022-08-17T16:19:27.737Z,48.75
2022-08-17T16:21:53.967Z,53.28
2022-08-17T16:24:20.186Z,51.09
2022-08-17T16:26:46.414Z,50.25
2022-08-17T16:29:12.640Z,49.71
2022-08-17T16:31:38.940Z,50.12
2022-08-17T16:34:16.731Z,51.83
2022-08-17T16:36:51.728Z,48.76
2022-08-17T16:39:22.042Z,51.30
2022-08-17T16:41:48.246Z,54.47
2022-08-17T16:44:15.352Z,54.33
2022-08-17T16:46:45.868Z,51.84
2022-08-17T16:49:12.536Z,54.42
2022-08-17T16:51:55.990Z,52.54
2022-08-17T16:54:22.221Z,51.25
2022-08-17T16:56:48.423Z,51.77
2022-08-17T16:59:39.424Z,52.42
2022-08-17T17:02:00.892Z,53.18
2022-08-17T17:04:27.166Z,55.13
2022-08-17T17:06:53.403Z,56.37
2022-08-17T17:09:19.654Z,56.95
2022-08-17T17:11:45.903Z,57.89
2022-08-17T17:14:12.131Z,54.78
2022-08-17T17:16:39.999Z,57.78
2022-08-17T17:19:10.413Z,55.20
2022-08-17T17:21:36.641Z,57.64
2022-08-17T17:24:02.893Z,57.64
2022-08-17T17:26:29.254Z,57.70
2022-08-17T17:28:55.464Z,57.33
2022-08-17T17:31:21.982Z,57.04
2022-08-17T17:33:48.218Z,57.51
2022-08-17T17:36:14.430Z,57.43
2022-08-17T17:38:40.714Z,58.51
2022-08-17T17:41:26.479Z,59.92
2022-08-17T17:43:52.881Z,59.35
2022-08-17T17:46:28.554Z,58.67
2022-08-17T17:48:55.452Z,58.89
2022-08-17T17:51:55.722Z,59.98
2022-08-17T17:54:11.274Z,60.89
2022-08-17T17:56:44.060Z,62.96
2022-08-17T17:59:12.645Z,63.40
2022-08-17T18:01:39.370Z,64.47
2022-08-17T18:04:17.060Z,65.22
2022-08-17T18:06:47.298Z,66.31
2022-08-17T18:09:15.481Z,66.81
2022-08-17T18:11:51.380Z,65.42
2022-08-17T18:14:18.005Z,67.03
2022-08-17T18:16:44.187Z,68.59
2022-08-17T18:19:10.369Z,68.81
2022-08-17T18:21:36.599Z,69.88
2022-08-17T18:24:02.809Z,69.57
2022-08-17T18:26:29.007Z,70.79
2022-08-17T18:28:58.334Z,68.69
2022-08-17T18:31:24.513Z,70.70
2022-08-17T18:33:50.790Z,71.87
2022-08-17T18:36:16.987Z,73.76
2022-08-17T18:38:43.214Z,73.03
2022-08-17T18:41:09.367Z,71.47
2022-08-17T18:43:43.757Z,73.22
2022-08-17T18:46:28.109Z,74.64
2022-08-17T18:48:55.542Z,74.26
2022-08-17T18:51:40.267Z,74.92
2022-08-17T18:54:08.803Z,74.54
2022-08-17T18:56:35.018Z,77.18
2022-08-17T18:59:01.267Z,77.89
2022-08-17T19:01:41.735Z,79.20
2022-08-17T19:04:13.785Z,79.83
2022-08-17T19:06:40.038Z,79.11
2022-08-17T19:09:06.315Z,79.68
2022-08-17T19:19:30.763Z,81.65
2022-08-17T19:21:58.309Z,82.02
2022-08-17T19:24:34.526Z,81.40
2022-08-17T19:27:01.304Z,80.27
2022-08-17T19:32:13.829Z,81.80
2022-08-17T19:34:40.174Z,81.76
2022-08-17T19:37:06.412Z,80.72
2022-08-17T19:39:38.572Z,80.25
2022-08-17T19:42:04.957Z,80.64
2022-08-17T19:44:31.323Z,81.10
2022-08-17T19:47:00.985Z,81.37
2022-08-17T19:49:33.497Z,81.47
2022-08-17T19:52:09.160Z,81.87
2022-08-17T19:54:36.609Z,81.12
2022-08-17T19:57:02.852Z,82.01
2022-08-17T19:59:29.175Z,84.16
2022-08-17T20:02:02.096Z,85.50
2022-08-17T20:04:31.825Z,86.38
2022-08-17T20:06:59.032Z,87.67
2022-08-17T20:09:25.285Z,88.12
2022-08-17T20:11:59.712Z,88.30
2022-08-17T20:14:25.919Z,89.38
2022-08-17T20:16:52.139Z,89.47
2022-08-17T20:19:18.668Z,90.22
2022-08-17T20:21:49.138Z,90.20
2022-08-17T20:24:15.395Z,90.75
2022-08-17T20:26:42.718Z,90.84
2022-08-17T20:29:37.817Z,92.48
2022-08-17T20:32:09.049Z,93.59
2022-08-17T20:34:37.480Z,95.07
2022-08-17T20:37:04.373Z,95.62
2022-08-17T20:39:34.765Z,96.41
2022-08-17T20:42:31.380Z,96.36
2022-08-17T20:44:52.170Z,96.79
2022-08-17T20:47:18.358Z,96.15
2022-08-17T20:49:44.559Z,95.93
2022-08-17T20:52:10.736Z,96.35
2022-08-17T20:54:36.892Z,96.28
2022-08-17T20:57:06.185Z,97.26
2022-08-17T20:59:40.409Z,96.97
2022-08-17T21:02:19.106Z,98.29
2022-08-17T21:04:45.574Z,99.17
2022-08-17T21:07:11.799Z,98.93
2022-08-17T21:09:38.053Z,98.54
2022-08-17T21:12:05.652Z,98.90
2022-08-17T21:14:31.993Z,99.35
2022-08-17T21:16:58.203Z,99.66
2022-08-17T21:19:24.387Z,99.63
2022-08-17T21:21:50.546Z,99.84
2022-08-17T21:24:16.737Z,100.00
2022-08-17T21:26:50.444Z,100.00
2022-08-17T21:29:31.608Z,100.00
2022-08-17T21:31:59.187Z,100.00
2022-08-17T21:34:25.412Z,100.00
2022-08-17T21:36:51.603Z,98.98
2022-08-17T21:39:18.221Z,100.00
2022-08-17T21:41:49.424Z,100.00
2022-08-17T21:44:15.611Z,100.00
2022-08-17T21:46:41.784Z,100.00
2022-08-17T21:49:13.954Z,100.00
2022-08-17T21:51:40.593Z,99.17
2022-08-17T21:54:06.769Z,97.60
2022-08-17T21:56:34.606Z,99.23
2022-08-17T21:59:00.805Z,97.98
2022-08-17T22:01:27.073Z,99.31
2022-08-17T22:03:53.347Z,100.00
2022-08-17T22:06:19.543Z,100.00
2022-08-17T22:08:45.701Z,98.77
2022-08-17T22:11:11.887Z,98.03
2022-08-17T22:13:38.095Z,98.94
2022-08-17T22:16:04.275Z,100.00
2022-08-17T22:18:41.970Z,100.00
2022-08-17T22:21:08.144Z,100.00
2022-08-17T22:23:34.348Z,100.00
2022-08-17T22:26:00.522Z,100.00
2022-08-17T22:28:26.715Z,100.00
2022-08-17T22:30:52.877Z,100.00
2022-08-17T22:33:19.055Z,100.00
2022-08-17T22:35:45.246Z,100.00
2022-08-17T22:38:11.503Z,96.71
2022-08-17T22:40:37.677Z,96.97
2022-08-17T22:43:03.825Z,98.80
2022-08-17T22:45:30.233Z,100.00
2022-08-17T22:47:56.408Z,97.63
2022-08-17T22:50:22.614Z,97.03
2022-08-17T22:52:48.762Z,96.28
2022-08-17T22:55:14.929Z,96.31
2022-08-17T22:57:41.142Z,94.88
2022-08-17T23:00:07.318Z,94.32
2022-08-17T23:02:33.607Z,93.89
2022-08-17T23:04:59.879Z,93.46
2022-08-17T23:07:26.070Z,92.77
2022-08-17T23:09:52.259Z,92.72
2022-08-17T23:12:18.423Z,92.91
2022-08-17T23:14:44.605Z,92.84
2022-08-17T23:17:10.938Z,93.61
2022-08-17T23:19:37.133Z,92.80
2022-08-17T23:22:03.305Z,93.62
2022-08-17T23:24:29.493Z,93.20
2022-08-17T23:26:55.712Z,93.57
2022-08-17T23:29:21.914Z,92.80
2022-08-17T23:31:48.148Z,92.43
2022-08-17T23:34:14.343Z,91.43
2022-08-17T23:36:40.499Z,90.59
2022-08-17T23:39:06.675Z,91.36
2022-08-17T23:41:32.837Z,92.15
2022-08-17T23:43:59.011Z,91.67
2022-08-17T23:46:25.227Z,90.78
2022-08-17T23:48:51.514Z,89.73
2022-08-17T23:51:17.735Z,90.58
2022-08-17T23:53:43.937Z,90.62
2022-08-17T23:56:11.325Z,91.84
2022-08-17T23:58:37.805Z,91.33
